Time;durP1;ratioP1;P1;durP2;ratioP2;P2;SDS_P1;SDS_P2;PMS_P1;PMS_P2;Temp;Humidity;BMP_temperature;BMP_pressure;BME280_temperature;BME280_humidity;BME280_pressure;Samples;Min_cycle;Max_cycle;Signal;HPM_P1;HPM_P2
2022/10/30 00:01:45;;;;;;;13.17;6.00;;;15.30;99.90;;;;;;4165390;28;20235;-84
2022/10/30 00:03:47;;;;;;;13.80;5.47;;;15.40;99.90;;;;;;4164738;28;20302;-84
2022/10/30 00:05:51;;;;;;;11.57;5.87;;;15.30;99.90;;;;;;4161610;28;20661;-85
2022/10/30 00:07:55;;;;;;;11.47;5.70;;;15.20;99.90;;;;;;4157420;28;20275;-85
2022/10/30 00:09:57;;;;;;;11.30;5.50;;;15.20;99.90;;;;;;4168270;28;20640;-86
2022/10/30 00:11:59;;;;;;;9.40;5.53;;;15.20;99.90;;;;;;4167764;28;20212;-86
2022/10/30 00:14:01;;;;;;;9.20;5.53;;;15.20;99.90;;;;;;4181784;28;20354;-84
2022/10/30 00:16:06;;;;;;;9.47;5.67;;;15.20;99.90;;;;;;4166306;28;20208;-87
2022/10/30 00:18:08;;;;;;;11.30;5.60;;;15.20;99.90;;;;;;4169575;28;20224;-86
2022/10/30 00:20:10;;;;;;;10.13;5.80;;;15.10;99.90;;;;;;4167787;28;20216;-85
2022/10/30 00:22:14;;;;;;;10.10;5.50;;;15.10;99.90;;;;;;4166750;28;20206;-85
2022/10/30 00:24:16;;;;;;;12.07;5.20;;;15.10;99.90;;;;;;4180265;28;20209;-84
2022/10/30 00:26:19;;;;;;;8.93;5.50;;;15.10;99.90;;;;;;4165464;28;20222;-87
2022/10/30 00:28:21;;;;;;;10.43;5.30;;;15.00;99.90;;;;;;4165511;28;20306;-85
2022/10/30 00:30:22;;;;;;;7.53;4.93;;;15.00;99.90;;;;;;4168694;28;20276;-87
2022/10/30 00:32:24;;;;;;;8.63;5.40;;;15.00;99.90;;;;;;4168766;28;20311;-85
2022/10/30 00:34:26;;;;;;;10.40;5.00;;;15.00;99.90;;;;;;4167341;28;20214;-84
2022/10/30 00:36:28;;;;;;;8.40;4.73;;;15.00;99.90;;;;;;4165175;28;20218;-86
2022/10/30 00:38:32;;;;;;;8.87;5.40;;;15.00;99.90;;;;;;4168376;28;20296;-86
2022/10/30 00:40:34;;;;;;;10.67;5.70;;;14.90;99.90;;;;;;4170262;28;20241;-86
2022/10/30 00:42:36;;;;;;;13.53;5.97;;;14.90;99.90;;;;;;4172596;28;20224;-86
2022/10/30 00:44:43;;;;;;;15.33;6.23;;;14.70;99.90;;;;;;4173180;28;20237;-86
2022/10/30 00:46:45;;;;;;;10.27;6.00;;;14.80;99.90;;;;;;4170512;28;20744;-86
2022/10/30 00:48:51;;;;;;;15.93;6.47;;;14.80;99.90;;;;;;4174201;28;20318;-85
2022/10/30 00:50:54;;;;;;;15.63;6.27;;;14.80;99.90;;;;;;4167169;28;20240;-85
2022/10/30 00:53:00;;;;;;;12.57;6.50;;;14.80;99.90;;;;;;4170985;28;20224;-84
2022/10/30 00:55:08;;;;;;;12.73;6.53;;;14.70;99.90;;;;;;4171603;28;20220;-85
2022/10/30 00:57:10;;;;;;;11.03;5.90;;;14.70;99.90;;;;;;4167914;28;20225;-87
2022/10/30 00:59:15;;;;;;;11.03;5.90;;;14.70;99.90;;;;;;4183343;28;20276;-84
2022/10/30 01:01:21;;;;;;;11.83;5.90;;;14.70;99.90;;;;;;4173338;28;20214;-86
2022/10/30 01:03:24;;;;;;;19.87;5.63;;;14.70;99.90;;;;;;4172305;28;20220;-86
2022/10/30 01:05:28;;;;;;;16.57;5.67;;;14.70;99.90;;;;;;4172101;28;20207;-86
2022/10/30 01:07:30;;;;;;;11.73;5.60;;;14.70;99.90;;;;;;4171531;28;20216;-88
2022/10/30 01:09:33;;;;;;;10.40;5.37;;;14.60;99.90;;;;;;4168177;28;20270;-86
2022/10/30 01:11:36;;;;;;;11.20;5.63;;;14.60;99.90;;;;;;4170547;28;20293;-86
2022/10/30 01:13:39;;;;;;;8.57;5.03;;;14.70;99.90;;;;;;4172450;28;20258;-86
2022/10/30 01:16:00;;;;;;;10.80;5.60;;;14.60;99.90;;;;;;4169310;28;20295;-86
2022/10/30 01:18:16;;;;;;;8.63;5.10;;;14.60;99.90;;;;;;4169002;28;20234;-84
2022/10/30 01:20:35;;;;;;;9.20;4.97;;;14.50;99.90;;;;;;4171654;28;20204;-84
2022/10/30 01:22:51;;;;;;;9.73;5.00;;;14.50;99.90;;;;;;4173346;28;20242;-86
2022/10/30 01:25:04;;;;;;;9.00;4.93;;;14.50;99.90;;;;;;4168785;28;20230;-85
2022/10/30 01:27:19;;;;;;;10.57;5.60;;;14.50;99.90;;;;;;4166871;28;20233;-84
2022/10/30 01:29:35;;;;;;;9.73;5.43;;;14.50;99.90;;;;;;4187178;28;20302;-85
2022/10/30 01:31:49;;;;;;;11.33;5.30;;;14.40;99.90;;;;;;4171405;28;20238;-87
2022/10/30 01:34:06;;;;;;;13.37;5.73;;;14.40;99.90;;;;;;4171306;28;20208;-86
2022/10/30 01:36:14;;;;;;;9.10;5.33;;;14.40;99.90;;;;;;4169652;28;20250;-86
2022/10/30 01:38:23;;;;;;;9.70;4.93;;;14.40;99.90;;;;;;4172869;28;20226;-84
2022/10/30 01:40:25;;;;;;;12.17;5.83;;;14.40;99.90;;;;;;4169411;28;20217;-84
2022/10/30 01:42:50;;;;;;;10.77;4.73;;;14.40;99.90;;;;;;4169197;28;20215;-85
2022/10/30 01:44:52;;;;;;;10.60;5.43;;;14.40;99.90;;;;;;4167298;28;20227;-87
2022/10/30 01:47:20;;;;;;;8.17;5.07;;;14.40;99.90;;;;;;4171032;28;20203;-85
2022/10/30 01:49:38;;;;;;;8.10;5.33;;;14.40;99.90;;;;;;4171453;28;20283;-83
2022/10/30 01:51:51;;;;;;;10.77;5.43;;;14.40;99.90;;;;;;4171979;28;20203;-84
2022/10/30 01:54:00;;;;;;;10.87;5.70;;;14.40;99.90;;;;;;4170398;28;20208;-84
2022/10/30 01:56:12;;;;;;;16.70;5.60;;;14.40;99.90;;;;;;4174200;28;20647;-84
2022/10/30 01:58:20;;;;;;;12.40;5.77;;;14.40;99.90;;;;;;4172078;28;20233;-84
2022/10/30 02:00:22;;;;;;;10.47;5.30;;;14.40;99.90;;;;;;4172560;28;20203;-87
2022/10/30 02:02:24;;;;;;;11.47;5.77;;;14.40;99.90;;;;;;4172249;28;20311;-86
2022/10/30 02:04:29;;;;;;;9.53;4.90;;;14.40;99.90;;;;;;4174736;28;20215;-86
2022/10/30 02:06:31;;;;;;;14.23;5.17;;;14.30;99.90;;;;;;4169766;28;20207;-85
2022/10/30 02:08:33;;;;;;;9.07;5.20;;;14.30;99.90;;;;;;4190960;28;20246;-84
2022/10/30 02:10:36;;;;;;;8.27;4.40;;;14.30;99.90;;;;;;4189992;28;20213;-86
2022/10/30 02:12:39;;;;;;;7.33;4.90;;;14.30;99.90;;;;;;4178185;28;20210;-84
2022/10/30 02:14:47;;;;;;;9.33;5.00;;;14.40;99.90;;;;;;4172676;28;20209;-86
2022/10/30 02:16:52;;;;;;;9.10;5.03;;;14.30;99.90;;;;;;4171847;28;20203;-85
2022/10/30 02:18:54;;;;;;;7.47;4.70;;;14.30;99.90;;;;;;4167627;28;20252;-85
2022/10/30 02:20:57;;;;;;;9.17;4.43;;;14.30;99.90;;;;;;4173188;28;20188;-85
2022/10/30 02:22:59;;;;;;;12.00;5.30;;;14.30;99.90;;;;;;4182897;28;20199;-85
2022/10/30 02:25:01;;;;;;;10.43;5.30;;;14.30;99.90;;;;;;4179141;28;20224;-87
2022/10/30 02:27:03;;;;;;;8.80;4.83;;;14.30;99.90;;;;;;4185932;28;20188;-86
2022/10/30 02:29:05;;;;;;;8.57;4.67;;;14.30;99.90;;;;;;4186562;28;20206;-88
2022/10/30 02:31:07;;;;;;;7.43;4.20;;;14.30;99.90;;;;;;4186216;28;20229;-88
2022/10/30 02:33:09;;;;;;;9.20;4.60;;;14.30;99.90;;;;;;4201390;28;20195;-84
2022/10/30 02:35:11;;;;;;;6.90;4.43;;;14.30;99.90;;;;;;4181298;28;20207;-84
2022/10/30 02:37:15;;;;;;;6.67;3.97;;;14.30;99.90;;;;;;4178948;28;20219;-88
2022/10/30 02:39:17;;;;;;;9.00;4.07;;;14.30;99.90;;;;;;4177899;28;20236;-87
2022/10/30 02:41:18;;;;;;;6.57;4.17;;;14.20;99.90;;;;;;4177835;28;20191;-86
2022/10/30 02:43:20;;;;;;;4.87;3.80;;;14.50;99.90;;;;;;4176258;28;20682;-84
2022/10/30 02:45:22;;;;;;;6.97;4.03;;;14.30;99.90;;;;;;4174921;28;20220;-84
2022/10/30 02:47:24;;;;;;;5.37;3.60;;;14.30;99.90;;;;;;4177160;28;20235;-83
2022/10/30 02:49:26;;;;;;;5.03;3.43;;;14.30;99.90;;;;;;4179046;28;20212;-83
2022/10/30 02:51:30;;;;;;;5.83;4.10;;;14.30;99.90;;;;;;4190499;28;20208;-84
2022/10/30 02:53:34;;;;;;;5.93;3.80;;;14.30;99.90;;;;;;4175539;28;20247;-85
2022/10/30 02:55:35;;;;;;;7.33;4.10;;;14.30;99.90;;;;;;4171677;28;20261;-84
2022/10/30 02:57:37;;;;;;;5.53;3.90;;;14.30;99.90;;;;;;4181647;28;20211;-84
2022/10/30 02:59:39;;;;;;;6.13;3.60;;;14.50;99.90;;;;;;4186841;28;20227;-85
2022/10/30 03:01:41;;;;;;;5.90;4.17;;;14.20;99.90;;;;;;4173919;28;20283;-84
2022/10/30 03:03:43;;;;;;;6.67;3.60;;;14.20;99.90;;;;;;4173926;28;20207;-84
2022/10/30 03:05:45;;;;;;;6.47;4.03;;;14.20;99.90;;;;;;4182786;28;20206;-85
2022/10/30 03:07:47;;;;;;;7.83;4.77;;;14.20;99.90;;;;;;4170230;28;20215;-85
2022/10/30 03:09:53;;;;;;;5.43;3.70;;;14.20;99.90;;;;;;4183206;28;20318;-86
2022/10/30 03:11:55;;;;;;;6.17;3.90;;;14.20;99.90;;;;;;4172642;28;20228;-85
2022/10/30 03:13:57;;;;;;;8.00;4.50;;;14.20;99.90;;;;;;4189910;28;20217;-84
2022/10/30 03:16:03;;;;;;;5.83;3.60;;;14.20;99.90;;;;;;4172459;28;20276;-86
2022/10/30 03:18:05;;;;;;;6.70;3.53;;;14.20;99.90;;;;;;4172849;28;20207;-86
2022/10/30 03:20:08;;;;;;;7.73;3.50;;;14.20;99.90;;;;;;4171120;28;20210;-84
2022/10/30 03:22:10;;;;;;;7.73;4.53;;;14.20;99.90;;;;;;4167976;28;20247;-85
2022/10/30 03:24:12;;;;;;;6.93;3.90;;;14.10;99.90;;;;;;4172499;28;20233;-84
2022/10/30 03:26:15;;;;;;;6.50;4.03;;;14.10;99.90;;;;;;4169478;28;20207;-85
2022/10/30 03:28:17;;;;;;;8.47;4.33;;;14.10;99.90;;;;;;4171207;28;20252;-85
2022/10/30 03:30:18;;;;;;;6.63;4.03;;;14.10;99.90;;;;;;4171283;28;20234;-85
2022/10/30 03:32:20;;;;;;;10.83;5.77;;;14.10;99.90;;;;;;4170313;28;20204;-85
2022/10/30 03:34:22;;;;;;;8.63;4.23;;;14.10;99.90;;;;;;4174245;28;20210;-85
2022/10/30 03:36:26;;;;;;;6.90;4.17;;;14.10;99.90;;;;;;4190196;28;20216;-84
2022/10/30 03:38:28;;;;;;;8.00;4.43;;;14.10;99.90;;;;;;4172002;28;20767;-85
2022/10/30 03:40:30;;;;;;;8.60;4.10;;;14.10;99.90;;;;;;4172868;28;20271;-84
2022/10/30 03:42:33;;;;;;;5.53;4.03;;;14.10;99.90;;;;;;4176173;28;20217;-85
2022/10/30 03:44:35;;;;;;;5.90;4.10;;;14.10;99.90;;;;;;4176121;28;20212;-85
2022/10/30 03:46:38;;;;;;;7.97;4.33;;;14.10;99.90;;;;;;4172531;28;20726;-86
2022/10/30 03:48:40;;;;;;;6.20;3.80;;;14.10;99.90;;;;;;4175437;28;20238;-84
2022/10/30 03:50:41;;;;;;;7.67;4.13;;;14.10;99.90;;;;;;4174137;28;20227;-84
2022/10/30 03:52:43;;;;;;;6.17;3.90;;;14.10;99.90;;;;;;4171172;28;20204;-84
2022/10/30 03:54:45;;;;;;;5.93;3.80;;;14.00;99.90;;;;;;4174779;28;20210;-86
2022/10/30 03:56:47;;;;;;;8.27;4.40;;;14.00;99.90;;;;;;4173806;28;20206;-87
2022/10/30 03:58:50;;;;;;;6.07;3.57;;;14.00;99.90;;;;;;4173007;28;20230;-88
2022/10/30 04:00:52;;;;;;;6.07;3.87;;;14.00;99.90;;;;;;4172606;28;20199;-86
2022/10/30 04:02:54;;;;;;;5.53;3.63;;;14.00;99.90;;;;;;4173611;28;20222;-88
2022/10/30 04:04:56;;;;;;;6.57;4.03;;;14.00;99.90;;;;;;4189997;28;20218;-87
2022/10/30 04:06:58;;;;;;;8.40;3.90;;;14.00;99.90;;;;;;4175690;28;20210;-84
2022/10/30 04:09:00;;;;;;;6.00;4.20;;;14.30;99.90;;;;;;4174292;28;20219;-85
2022/10/30 04:11:02;;;;;;;7.43;4.27;;;13.90;99.90;;;;;;4174998;28;20238;-87
2022/10/30 04:13:06;;;;;;;6.30;3.60;;;14.00;99.90;;;;;;4205548;23;20208;-80
2022/10/30 04:15:10;;;;;;;6.23;3.67;;;14.00;99.90;;;;;;4129550;28;20697;-79
2022/10/30 04:17:12;;;;;;;4.87;3.50;;;14.00;99.90;;;;;;4135540;28;20307;-79
2022/10/30 04:19:13;;;;;;;7.30;3.63;;;14.00;99.90;;;;;;4139223;28;20612;-79
2022/10/30 04:21:15;;;;;;;7.67;4.10;;;14.00;99.90;;;;;;4135533;28;20204;-79
2022/10/30 04:23:19;;;;;;;7.47;3.97;;;14.00;99.90;;;;;;4134721;28;20689;-79
2022/10/30 04:25:21;;;;;;;9.83;4.50;;;14.00;99.90;;;;;;4124225;28;20212;-79
2022/10/30 04:27:23;;;;;;;7.13;4.20;;;14.00;99.90;;;;;;4133154;28;20279;-79
2022/10/30 04:29:24;;;;;;;7.20;4.47;;;14.00;99.90;;;;;;4138169;28;20731;-79
2022/10/30 04:31:28;;;;;;;7.13;4.07;;;14.00;99.90;;;;;;4142462;28;20219;-80
2022/10/30 04:33:29;;;;;;;6.97;4.00;;;14.00;99.90;;;;;;4135395;28;20266;-79
2022/10/30 04:35:35;;;;;;;9.20;4.50;;;14.00;99.90;;;;;;4135713;28;20675;-80
2022/10/30 04:37:37;;;;;;;9.23;4.60;;;14.00;99.90;;;;;;4132550;28;20275;-81
2022/10/30 04:39:39;;;;;;;7.37;4.17;;;14.00;99.90;;;;;;4142943;28;20223;-79
2022/10/30 04:41:41;;;;;;;7.50;4.50;;;14.00;99.90;;;;;;4130754;28;20210;-79
2022/10/30 04:43:42;;;;;;;10.33;4.70;;;14.00;99.90;;;;;;4123029;28;20231;-79
2022/10/30 04:45:44;;;;;;;8.67;4.50;;;14.00;99.90;;;;;;4131249;28;20299;-80
2022/10/30 04:47:48;;;;;;;12.23;4.60;;;14.10;99.90;;;;;;4136017;28;20290;-79
2022/10/30 04:49:49;;;;;;;8.47;4.17;;;14.10;99.90;;;;;;4124336;28;20223;-79
2022/10/30 04:51:51;;;;;;;6.60;4.10;;;14.10;99.90;;;;;;4133297;28;20217;-79
2022/10/30 04:53:53;;;;;;;6.47;3.80;;;14.10;99.90;;;;;;4135964;28;20225;-79
2022/10/30 04:55:55;;;;;;;6.20;3.93;;;14.10;99.90;;;;;;4137873;28;20208;-79
2022/10/30 04:57:58;;;;;;;7.70;4.00;;;14.00;99.90;;;;;;4136187;28;20239;-79
2022/10/30 05:00:00;;;;;;;6.73;4.07;;;14.00;99.90;;;;;;4136663;28;20284;-79
2022/10/30 05:02:02;;;;;;;5.70;4.00;;;14.00;99.90;;;;;;4135059;28;20227;-79
2022/10/30 05:04:05;;;;;;;5.17;3.50;;;14.00;99.90;;;;;;4158361;28;20232;-80
2022/10/30 05:06:15;;;;;;;5.93;3.50;;;14.00;99.90;;;;;;4126198;28;20228;-79
2022/10/30 05:08:17;;;;;;;8.00;3.90;;;14.00;99.90;;;;;;4135967;28;20231;-80
2022/10/30 05:10:19;;;;;;;7.70;3.93;;;14.00;99.90;;;;;;4136847;28;20307;-79
2022/10/30 05:12:21;;;;;;;4.17;3.07;;;14.00;99.90;;;;;;4134179;28;20223;-79
2022/10/30 05:14:23;;;;;;;6.03;3.60;;;14.00;99.90;;;;;;4142930;28;20231;-79
2022/10/30 05:16:24;;;;;;;7.23;3.60;;;14.00;99.90;;;;;;4133719;28;20719;-80
2022/10/30 05:18:26;;;;;;;6.23;3.70;;;14.00;99.90;;;;;;4135873;28;20287;-79
2022/10/30 05:20:30;;;;;;;5.17;3.10;;;14.10;99.90;;;;;;4135765;28;20208;-79
2022/10/30 05:22:32;;;;;;;5.37;3.60;;;14.00;99.90;;;;;;4132566;28;20310;-79
2022/10/30 05:24:34;;;;;;;5.67;3.67;;;14.00;99.90;;;;;;4127906;28;20979;-80
2022/10/30 05:26:35;;;;;;;5.87;3.30;;;14.00;99.90;;;;;;4129474;28;20205;-80
2022/10/30 05:28:38;;;;;;;5.37;3.40;;;14.00;99.90;;;;;;4139135;28;20790;-79
2022/10/30 05:30:40;;;;;;;5.27;3.13;;;14.00;99.90;;;;;;4133415;28;20222;-79
2022/10/30 05:32:44;;;;;;;5.47;3.60;;;14.00;99.90;;;;;;4147600;28;20235;-79
2022/10/30 05:34:46;;;;;;;5.93;3.67;;;14.00;99.90;;;;;;4127797;28;20660;-79
2022/10/30 05:36:50;;;;;;;8.97;3.47;;;14.00;99.90;;;;;;4135801;28;20220;-80
2022/10/30 05:38:52;;;;;;;7.50;3.90;;;14.10;99.90;;;;;;4134610;28;20299;-79
2022/10/30 05:40:54;;;;;;;5.17;3.20;;;14.10;99.90;;;;;;4135029;28;20204;-79
2022/10/30 05:42:55;;;;;;;4.20;3.10;;;14.10;99.90;;;;;;4136330;28;20299;-79
2022/10/30 05:44:57;;;;;;;4.67;2.93;;;14.10;99.90;;;;;;4137027;28;20221;-80
2022/10/30 05:46:59;;;;;;;7.07;3.23;;;14.10;99.90;;;;;;4133200;28;20252;-78
2022/10/30 05:49:02;;;;;;;4.67;3.10;;;14.00;99.90;;;;;;4130730;28;20303;-79
2022/10/30 05:51:05;;;;;;;6.50;3.33;;;14.10;99.90;;;;;;4136478;28;20264;-80
2022/10/30 05:53:10;;;;;;;4.60;3.13;;;14.10;99.90;;;;;;4133539;28;20567;-79
2022/10/30 05:55:12;;;;;;;5.60;2.90;;;14.10;99.90;;;;;;4134851;28;20208;-80
2022/10/30 05:57:13;;;;;;;5.43;3.37;;;14.10;99.90;;;;;;4131485;28;20225;-79
2022/10/30 05:59:16;;;;;;;5.93;2.90;;;14.10;99.90;;;;;;4126842;28;20216;-80
2022/10/30 06:01:18;;;;;;;5.83;3.60;;;14.10;99.90;;;;;;4132322;28;20263;-79
2022/10/30 06:03:20;;;;;;;5.47;3.40;;;14.10;99.90;;;;;;4137936;28;20244;-79
2022/10/30 06:05:22;;;;;;;7.07;3.47;;;14.10;99.90;;;;;;4143178;28;20246;-80
2022/10/30 06:07:24;;;;;;;6.53;3.57;;;14.10;99.90;;;;;;4132383;28;20263;-79
2022/10/30 06:09:27;;;;;;;4.33;3.30;;;14.20;99.90;;;;;;4130773;28;20209;-79
2022/10/30 06:11:29;;;;;;;6.83;3.53;;;14.20;99.90;;;;;;4128242;28;20214;-79
2022/10/30 06:13:31;;;;;;;4.77;3.23;;;14.20;99.90;;;;;;4128355;28;20244;-79
2022/10/30 06:15:34;;;;;;;4.67;2.97;;;14.20;99.90;;;;;;4152274;28;20211;-80
2022/10/30 06:17:36;;;;;;;3.70;2.63;;;14.20;99.90;;;;;;4138106;28;20286;-80
2022/10/30 06:19:37;;;;;;;4.07;2.90;;;14.20;99.90;;;;;;4136069;28;20633;-79
2022/10/30 06:21:39;;;;;;;4.73;3.37;;;14.20;99.90;;;;;;4132245;28;20263;-80
2022/10/30 06:23:41;;;;;;;5.77;3.93;;;14.20;99.90;;;;;;4133688;28;20255;-80
2022/10/30 06:25:45;;;;;;;5.50;3.70;;;14.20;99.90;;;;;;4117723;28;20765;-80
2022/10/30 06:27:47;;;;;;;5.70;3.60;;;14.20;99.90;;;;;;4131832;28;20221;-79
2022/10/30 06:29:49;;;;;;;5.90;3.53;;;14.20;99.90;;;;;;4130650;28;20209;-79
2022/10/30 06:31:51;;;;;;;5.70;3.47;;;14.20;99.90;;;;;;4130465;28;20231;-79
2022/10/30 06:33:55;;;;;;;4.77;3.33;;;14.20;99.90;;;;;;4130027;28;20218;-79
2022/10/30 06:35:57;;;;;;;6.50;3.80;;;14.20;99.90;;;;;;4127021;28;20212;-79
2022/10/30 06:38:00;;;;;;;9.63;3.70;;;14.40;99.90;;;;;;4137931;28;20243;-80
2022/10/30 06:40:08;;;;;;;6.70;3.77;;;14.20;99.90;;;;;;4138449;28;20466;-80
2022/10/30 06:42:15;;;;;;;7.37;4.23;;;14.20;99.90;;;;;;4137623;28;20215;-79
2022/10/30 06:44:20;;;;;;;5.20;3.27;;;14.10;99.90;;;;;;4129396;28;20240;-79
2022/10/30 06:46:22;;;;;;;6.60;3.90;;;14.20;99.90;;;;;;4132701;28;20220;-80
2022/10/30 06:48:29;;;;;;;8.03;4.17;;;14.20;99.90;;;;;;4137877;28;20259;-81
2022/10/30 06:50:31;;;;;;;7.37;4.40;;;14.20;99.90;;;;;;4135800;28;20220;-81
2022/10/30 06:52:33;;;;;;;8.27;4.13;;;14.20;99.90;;;;;;4147160;28;20215;-80
2022/10/30 06:54:35;;;;;;;7.07;3.97;;;14.30;99.90;;;;;;4135895;28;20253;-79
2022/10/30 06:56:37;;;;;;;12.13;4.63;;;14.30;99.90;;;;;;4130714;28;20244;-80
2022/10/30 06:58:41;;;;;;;7.77;4.27;;;14.30;99.90;;;;;;4131164;28;20216;-80
2022/10/30 07:00:44;;;;;;;10.30;4.20;;;14.30;99.90;;;;;;4131089;28;20264;-80
2022/10/30 07:02:55;;;;;;;10.63;4.30;;;14.30;99.90;;;;;;4148166;28;20244;-79
2022/10/30 07:04:59;;;;;;;9.53;4.77;;;14.30;99.90;;;;;;4129001;28;20734;-80
2022/10/30 07:07:04;;;;;;;10.30;5.10;;;14.40;99.90;;;;;;4132350;28;20271;-80
2022/10/30 07:09:06;;;;;;;7.27;3.60;;;14.50;99.90;;;;;;4130582;28;20251;-80
2022/10/30 07:11:21;;;;;;;6.37;4.03;;;14.40;99.90;;;;;;4146509;28;20224;-80
2022/10/30 07:19:55;;;;;;;6.60;3.77;;;14.40;99.90;;;;;;3966557;29;20222;-80
2022/10/30 07:22:01;;;;;;;4.67;3.30;;;14.40;99.90;;;;;;4071711;29;20209;-81
2022/10/30 07:24:03;;;;;;;6.57;3.80;;;14.40;99.90;;;;;;4144026;28;20244;-81
2022/10/30 07:26:07;;;;;;;5.93;3.17;;;14.40;99.90;;;;;;4128581;28;20221;-80
2022/10/30 07:28:08;;;;;;;7.83;3.70;;;14.30;99.90;;;;;;4131404;28;20288;-80
2022/10/30 07:30:11;;;;;;;6.30;3.80;;;14.50;99.90;;;;;;4130275;28;20551;-80
2022/10/30 07:32:15;;;;;;;7.90;3.90;;;14.50;99.90;;;;;;4133575;28;20230;-80
2022/10/30 07:34:18;;;;;;;7.93;3.80;;;14.40;99.90;;;;;;4131984;28;20276;-80
2022/10/30 07:36:22;;;;;;;7.63;3.50;;;14.60;99.90;;;;;;4131995;28;20584;-80
2022/10/30 07:38:25;;;;;;;4.83;3.37;;;14.50;99.90;;;;;;4132177;28;20576;-80
2022/10/30 07:40:27;;;;;;;6.37;3.50;;;14.50;99.90;;;;;;4130227;28;20214;-80
2022/10/30 07:42:32;;;;;;;6.87;3.10;;;14.60;99.90;;;;;;4146670;28;20785;-80
2022/10/30 07:44:38;;;;;;;9.77;3.70;;;14.50;99.90;;;;;;4133783;28;20237;-80
2022/10/30 07:46:40;;;;;;;8.20;3.90;;;14.50;99.90;;;;;;4133591;28;20212;-80
2022/10/30 07:48:42;;;;;;;7.27;4.10;;;14.50;99.90;;;;;;4130827;28;20220;-80
2022/10/30 07:50:44;;;;;;;7.63;4.20;;;14.50;99.90;;;;;;4125993;28;20246;-80
2022/10/30 07:52:48;;;;;;;6.50;4.33;;;14.60;99.90;;;;;;4127295;28;20718;-80
2022/10/30 07:54:50;;;;;;;6.73;4.13;;;14.60;99.90;;;;;;4128679;28;20233;-80
2022/10/30 07:56:52;;;;;;;6.43;3.77;;;14.60;99.90;;;;;;4131476;28;20201;-80
2022/10/30 07:58:54;;;;;;;6.67;4.00;;;14.60;99.90;;;;;;4129556;28;20211;-80
2022/10/30 08:00:56;;;;;;;8.90;3.80;;;14.70;99.90;;;;;;4125487;28;20293;-80
2022/10/30 08:02:58;;;;;;;7.60;4.20;;;14.70;99.90;;;;;;4134936;28;21302;-80
2022/10/30 08:05:00;;;;;;;7.80;3.90;;;14.70;99.90;;;;;;4131848;28;20206;-80
2022/10/30 08:07:02;;;;;;;7.23;3.93;;;14.70;99.90;;;;;;4129012;28;20296;-80
2022/10/30 08:09:06;;;;;;;6.63;3.63;;;14.80;99.90;;;;;;4127913;28;20272;-79
2022/10/30 08:11:08;;;;;;;6.67;3.67;;;14.80;99.90;;;;;;4130381;28;20232;-80
2022/10/30 08:13:13;;;;;;;5.67;3.27;;;14.80;99.90;;;;;;4130756;28;20213;-80
2022/10/30 08:15:15;;;;;;;9.17;4.97;;;14.70;99.90;;;;;;4135253;28;20210;-79
2022/10/30 08:17:18;;;;;;;9.30;4.10;;;14.90;99.90;;;;;;4137820;28;20284;-80
2022/10/30 08:19:19;;;;;;;6.67;3.97;;;15.00;99.90;;;;;;4145624;28;20298;-79
2022/10/30 08:21:21;;;;;;;8.03;4.50;;;14.90;99.90;;;;;;4134904;28;20715;-80
2022/10/30 08:23:23;;;;;;;8.83;4.50;;;14.90;99.90;;;;;;4130397;28;20227;-79
2022/10/30 08:25:30;;;;;;;7.77;4.10;;;14.90;99.90;;;;;;4132272;28;20622;-80
2022/10/30 08:27:31;;;;;;;8.53;4.20;;;14.90;99.90;;;;;;4130413;28;20672;-79
2022/10/30 08:29:34;;;;;;;9.40;4.40;;;14.80;99.90;;;;;;4126946;28;20214;-80
2022/10/30 08:31:36;;;;;;;6.33;4.00;;;14.90;99.90;;;;;;4135032;28;20224;-80
2022/10/30 08:33:38;;;;;;;7.30;3.90;;;14.90;99.90;;;;;;4135463;28;20234;-80
2022/10/30 08:35:48;;;;;;;7.87;4.47;;;14.90;99.90;;;;;;4132673;28;20212;-80
2022/10/30 08:37:51;;;;;;;5.97;3.90;;;15.00;99.90;;;;;;4136076;28;20209;-80
2022/10/30 08:39:57;;;;;;;10.77;4.47;;;14.90;99.90;;;;;;4138188;28;20212;-79
2022/10/30 08:42:00;;;;;;;9.57;4.10;;;15.00;99.90;;;;;;4144123;28;20581;-79
2022/10/30 08:44:02;;;;;;;6.23;3.67;;;15.10;99.90;;;;;;4130582;28;20242;-79
2022/10/30 08:46:04;;;;;;;6.43;4.00;;;15.00;99.90;;;;;;4130502;28;20610;-80
2022/10/30 08:48:10;;;;;;;10.50;5.60;;;15.00;99.90;;;;;;4129236;28;20211;-80
2022/10/30 08:50:11;;;;;;;14.47;7.07;;;15.00;99.90;;;;;;4131095;28;20748;-80
2022/10/30 08:52:13;;;;;;;16.13;6.60;;;15.00;99.90;;;;;;4129736;28;20293;-80
2022/10/30 08:54:15;;;;;;;15.80;5.60;;;15.00;99.90;;;;;;4137060;28;20305;-79
2022/10/30 08:56:17;;;;;;;9.50;5.50;;;15.10;99.90;;;;;;4131849;28;20249;-80
2022/10/30 08:58:21;;;;;;;11.37;5.20;;;15.10;99.90;;;;;;4137231;28;20239;-80
2022/10/30 09:00:23;;;;;;;13.33;5.20;;;15.10;99.90;;;;;;4131382;28;20217;-80
2022/10/30 09:02:25;;;;;;;10.50;5.20;;;15.10;99.90;;;;;;4138155;28;20245;-80
2022/10/30 09:04:27;;;;;;;9.00;4.90;;;15.20;99.90;;;;;;4140421;28;20260;-80
2022/10/30 09:06:30;;;;;;;8.93;4.77;;;15.30;99.90;;;;;;4136211;28;20213;-80
2022/10/30 09:08:32;;;;;;;10.27;4.47;;;15.30;99.90;;;;;;4142105;28;20326;-80
2022/10/30 09:10:34;;;;;;;9.77;4.73;;;15.40;99.90;;;;;;4133436;28;20216;-80
2022/10/30 09:12:36;;;;;;;9.90;4.90;;;15.40;99.90;;;;;;4134280;28;20257;-79
2022/10/30 09:14:39;;;;;;;12.33;4.67;;;15.50;99.90;;;;;;4136438;28;20317;-79
2022/10/30 09:16:41;;;;;;;10.30;4.90;;;15.50;99.90;;;;;;4140085;28;20219;-80
2022/10/30 09:18:43;;;;;;;14.00;5.17;;;15.60;99.90;;;;;;4137978;28;20204;-80
2022/10/30 09:20:45;;;;;;;12.37;4.60;;;15.70;99.90;;;;;;4150482;28;20230;-79
2022/10/30 09:22:46;;;;;;;18.60;5.93;;;15.80;99.90;;;;;;4137286;28;20251;-80
2022/10/30 09:24:48;;;;;;;9.23;4.70;;;15.90;99.90;;;;;;4133819;28;20233;-80
2022/10/30 09:26:50;;;;;;;8.97;4.67;;;16.00;99.90;;;;;;4148445;28;20305;-79
2022/10/30 09:28:52;;;;;;;9.93;4.57;;;16.00;99.90;;;;;;4133483;28;20287;-79
2022/10/30 09:30:55;;;;;;;9.87;3.90;;;16.10;99.90;;;;;;4139619;28;20208;-80
2022/10/30 09:32:59;;;;;;;7.40;4.40;;;16.00;99.90;;;;;;4132292;28;20227;-80
2022/10/30 09:35:01;;;;;;;5.93;4.20;;;16.20;99.90;;;;;;4137762;28;20279;-80
2022/10/30 09:37:03;;;;;;;11.70;4.30;;;16.20;99.90;;;;;;4138005;28;20635;-79
2022/10/30 09:39:05;;;;;;;9.00;4.60;;;16.30;99.90;;;;;;4134556;28;20674;-77
2022/10/30 09:41:21;;;;;;;9.10;4.20;;;16.40;99.90;;;;;;4133239;28;20230;-77
2022/10/30 09:43:34;;;;;;;7.07;3.70;;;16.50;99.90;;;;;;4134406;28;20228;-79
2022/10/30 09:46:13;;;;;;;11.60;4.57;;;16.60;99.90;;;;;;4134434;28;20207;-79
2022/10/30 09:48:39;;;;;;;12.60;4.40;;;16.70;99.90;;;;;;4138027;28;20210;-79
2022/10/30 09:50:53;;;;;;;8.57;3.60;;;16.90;99.90;;;;;;4138681;28;20216;-79
2022/10/30 09:53:05;;;;;;;9.90;4.20;;;17.00;99.90;;;;;;4159239;28;20242;-79
2022/10/30 09:55:30;;;;;;;13.10;4.67;;;17.10;99.90;;;;;;4144713;28;20679;-81
2022/10/30 09:57:41;;;;;;;7.57;3.63;;;17.30;99.90;;;;;;4139648;28;20220;-81
2022/10/30 09:59:54;;;;;;;7.53;4.00;;;17.40;99.90;;;;;;4133694;28;20220;-81
2022/10/30 10:02:03;;;;;;;14.53;4.57;;;17.60;99.90;;;;;;4138899;28;20200;-79
2022/10/30 10:04:18;;;;;;;15.80;5.47;;;17.70;99.90;;;;;;4137074;28;20252;-78
2022/10/30 10:06:20;;;;;;;11.77;4.53;;;17.80;99.90;;;;;;4133533;28;20218;-81
2022/10/30 10:08:26;;;;;;;10.33;4.00;;;17.90;99.90;;;;;;4142381;28;20211;-77
2022/10/30 10:10:39;;;;;;;9.93;3.90;;;18.00;99.90;;;;;;4130092;28;20244;-78
2022/10/30 10:12:44;;;;;;;6.03;3.37;;;18.10;99.90;;;;;;4135786;28;20224;-78
2022/10/30 10:16:52;;;;;;;7.33;3.70;;;18.30;99.90;;;;;;4153805;28;20902;-76
2022/10/30 10:19:02;;;;;;;9.60;3.70;;;18.40;99.90;;;;;;4151294;28;20234;-77
2022/10/30 10:21:14;;;;;;;8.93;3.50;;;18.50;99.90;;;;;;4144202;28;20215;-78
2022/10/30 10:23:18;;;;;;;9.17;3.77;;;18.60;99.90;;;;;;4144455;28;20198;-75
2022/10/30 10:25:20;;;;;;;7.47;3.80;;;18.70;99.90;;;;;;4123613;28;20238;-78
2022/10/30 10:27:34;;;;;;;9.23;3.63;;;18.70;99.90;;;;;;4141341;28;20825;-74
2022/10/30 10:29:47;;;;;;;9.17;3.70;;;18.80;99.90;;;;;;4143480;28;20268;-76
2022/10/30 10:31:59;;;;;;;9.17;3.40;;;18.90;99.90;;;;;;4125190;28;20675;-73
2022/10/30 10:34:20;;;;;;;8.40;3.40;;;19.00;99.90;;;;;;4141704;28;20273;-73
2022/10/30 10:36:34;;;;;;;8.13;3.63;;;19.10;99.90;;;;;;4141446;28;20786;-73
2022/10/30 10:38:56;;;;;;;7.57;3.10;;;19.20;99.90;;;;;;4144098;28;20601;-73
2022/10/30 10:41:04;;;;;;;5.80;3.37;;;19.40;99.90;;;;;;4141331;28;20214;-73
2022/10/30 10:43:20;;;;;;;6.73;3.23;;;19.40;99.90;;;;;;4141722;28;20222;-75
2022/10/30 10:45:31;;;;;;;8.37;3.50;;;19.50;99.90;;;;;;4143561;28;20224;-72
2022/10/30 10:47:53;;;;;;;9.83;3.20;;;19.70;99.90;;;;;;4125348;28;20208;-74
2022/10/30 10:50:14;;;;;;;8.40;3.20;;;19.90;99.90;;;;;;4144769;28;20653;-74
2022/10/30 10:52:21;;;;;;;11.07;3.10;;;20.00;99.90;;;;;;4138910;28;20619;-71
2022/10/30 10:54:27;;;;;;;11.37;3.03;;;20.20;99.90;;;;;;4135605;28;20291;-72
2022/10/30 10:56:33;;;;;;;10.00;3.47;;;20.20;99.90;;;;;;4143504;28;20227;-74